KRST/RST METAR and TAF weather

Enter ICAO airport designator
Station Type Date Time Source
KRST METAR 2020/09/26 23:54 UTC NOAA

KRST 262354Z 17007KT 10SM CLR 21/17 A2948 RMK AO2 SLP977 60000 T02110167 10239 20200 50007


Station Type Date Time Source
KRST Decoded METAR 2020/09/26 23:54 UTC NOAA

ROCHESTER INTERNATIONAL AIRPORT , MN, United States (KRST) 43-54N 092-30W 403M
Sep 26, 2020 - 07:54 PM EDT / 2020.09.26 2354 UTC
Wind: from the S (170 degrees) at 8 MPH (7 KT):0
Visibility: 10 mile(s):0
Sky conditions: clear
Temperature: 70.0 F (21.1 C)
Dew Point: 62.1 F (16.7 C)
Relative Humidity: 75%
Pressure (altimeter): 29.48 in. Hg (998 hPa)
Pressure tendency: 0.02 inches (0.7 hPa) higher than three hours ago
ob: KRST 262354Z 17007KT 10SM CLR 21/17 A2948 RMK AO2 SLP977 60000 T02110167 10239 20200 50007
cycle: 0

Station Type Date Time Source
KRST TAF 2020/09/26 21:42 UTC NOAA

TAF
AMD KRST 262039Z 2621/2718 11010KT P6SM BKN035
TEMPO 2621/2623 BKN025
FM270100 25010KT P6SM BKN150 WS020/29045KT
FM270700 27012KT P6SM BKN150
FM271600 27013G20KT P6SM SCT100

Example: see airport list